Time;durP1;ratioP1;P1;durP2;ratioP2;P2;SDS_P1;SDS_P2;PMS_P1;PMS_P2;Temp;Humidity;BMP_temperature;BMP_pressure;BME280_temperature;BME280_humidity;BME280_pressure;Samples;Min_cycle;Max_cycle;Signal;HPM_P1;HPM_P2
2021/03/06 00:00:34;;;;;;;7.80;7.00;;;2.20;99.90;;;;;;4977751;28;20168;-77
2021/03/06 00:03:00;;;;;;;12.87;7.47;;;2.10;99.90;;;;;;4964752;28;20417;-78
2021/03/06 00:05:26;;;;;;;10.37;8.40;;;2.10;99.90;;;;;;4982953;28;20433;-77
2021/03/06 00:07:52;;;;;;;11.50;8.60;;;2.10;99.90;;;;;;4967553;28;20478;-78
2021/03/06 00:10:18;;;;;;;11.87;8.70;;;2.10;99.90;;;;;;4984716;28;20793;-78
2021/03/06 00:12:46;;;;;;;11.87;7.70;;;2.10;99.90;;;;;;4986281;28;20179;-79
2021/03/06 00:15:19;;;;;;;12.17;9.07;;;2.00;99.90;;;;;;4971637;28;20508;-79
2021/03/06 00:17:45;;;;;;;19.60;9.97;;;2.00;99.90;;;;;;4949692;29;20520;-79
2021/03/06 00:20:11;;;;;;;16.60;11.63;;;1.90;99.90;;;;;;4949022;28;20456;-79
2021/03/06 00:22:36;;;;;;;21.10;13.20;;;2.00;99.90;;;;;;4976359;28;20280;-76
2021/03/06 00:25:09;;;;;;;14.80;10.20;;;2.00;99.90;;;;;;4975370;28;20176;-78
2021/03/06 00:27:35;;;;;;;15.43;8.80;;;2.00;99.90;;;;;;4976135;28;20292;-77
2021/03/06 00:30:04;;;;;;;13.53;8.70;;;2.00;99.90;;;;;;4976389;28;20459;-77
2021/03/06 00:32:29;;;;;;;11.57;9.57;;;2.00;99.90;;;;;;4976544;28;20417;-77
2021/03/06 00:34:55;;;;;;;9.47;7.93;;;2.00;99.90;;;;;;4976447;28;20428;-78
2021/03/06 00:37:20;;;;;;;11.37;8.23;;;2.00;99.90;;;;;;4955520;28;20562;-77
2021/03/06 00:39:46;;;;;;;12.97;8.63;;;2.00;99.90;;;;;;4954198;28;20210;-77
2021/03/06 00:42:11;;;;;;;9.77;8.17;;;2.10;99.90;;;;;;4974240;28;20181;-78
2021/03/06 00:44:37;;;;;;;12.60;7.83;;;2.00;99.90;;;;;;4976131;28;20177;-78
2021/03/06 00:47:02;;;;;;;10.07;7.27;;;2.00;99.90;;;;;;4974532;28;20275;-78
2021/03/06 00:49:28;;;;;;;9.13;8.00;;;2.00;99.90;;;;;;4958419;28;20549;-78
2021/03/06 00:51:54;;;;;;;11.83;7.30;;;1.90;99.90;;;;;;4958336;28;20186;-77
2021/03/06 00:54:19;;;;;;;15.10;8.10;;;2.00;99.90;;;;;;4974640;28;20170;-77
2021/03/06 00:56:45;;;;;;;13.47;7.10;;;1.90;99.90;;;;;;4975539;28;20237;-77
2021/03/06 00:59:10;;;;;;;9.77;6.63;;;1.90;99.90;;;;;;4975787;28;20252;-77
2021/03/06 01:01:36;;;;;;;9.10;5.90;;;1.90;99.90;;;;;;4975286;28;20216;-77
2021/03/06 01:04:02;;;;;;;9.40;7.17;;;1.90;99.90;;;;;;4975648;28;20184;-77
2021/03/06 01:06:27;;;;;;;9.77;7.60;;;1.90;99.90;;;;;;4975301;28;20271;-77
2021/03/06 01:08:53;;;;;;;7.60;5.77;;;1.90;99.90;;;;;;4957761;28;20177;-77
2021/03/06 01:11:18;;;;;;;7.90;6.23;;;1.90;99.90;;;;;;4975200;28;20166;-77
2021/03/06 01:13:44;;;;;;;9.23;6.50;;;1.80;99.90;;;;;;4975113;28;20256;-77
2021/03/06 01:16:10;;;;;;;7.47;5.70;;;1.90;99.90;;;;;;4959333;28;20562;-78
2021/03/06 01:18:35;;;;;;;6.73;5.97;;;1.80;99.90;;;;;;4974708;28;20186;-77
2021/03/06 01:21:01;;;;;;;9.00;5.70;;;1.80;99.90;;;;;;4978515;28;20188;-78
2021/03/06 01:23:27;;;;;;;11.20;6.17;;;1.80;99.90;;;;;;4971247;28;20182;-78
2021/03/06 01:25:52;;;;;;;7.37;6.57;;;1.70;99.90;;;;;;4976530;28;20212;-78
2021/03/06 01:28:18;;;;;;;8.70;7.30;;;1.70;99.90;;;;;;4944611;29;20171;-78
2021/03/06 01:30:43;;;;;;;10.57;7.10;;;1.70;99.90;;;;;;4957238;28;20205;-75
2021/03/06 01:33:09;;;;;;;10.00;8.43;;;1.70;99.90;;;;;;4976188;28;20178;-78
2021/03/06 01:35:35;;;;;;;12.77;10.13;;;1.70;99.90;;;;;;4962214;28;20553;-78
2021/03/06 01:38:01;;;;;;;12.67;9.10;;;1.70;99.90;;;;;;4956736;28;20427;-78
2021/03/06 01:40:34;;;;;;;13.20;9.97;;;1.70;99.90;;;;;;4978110;28;20185;-77
2021/03/06 01:43:07;;;;;;;17.33;7.93;;;1.70;99.90;;;;;;4961612;29;20178;-78
2021/03/06 01:45:33;;;;;;;14.10;9.07;;;1.60;99.90;;;;;;4963512;28;20439;-78
2021/03/06 01:47:59;;;;;;;10.73;7.40;;;1.60;99.90;;;;;;4975807;28;20505;-78
2021/03/06 01:50:34;;;;;;;10.10;7.57;;;1.50;99.90;;;;;;4949666;28;20433;-78
2021/03/06 01:53:01;;;;;;;16.23;8.83;;;1.50;99.90;;;;;;4969764;28;20432;-77
2021/03/06 01:55:29;;;;;;;12.23;7.80;;;1.50;99.90;;;;;;4981905;28;20492;-77
2021/03/06 01:57:55;;;;;;;8.13;6.87;;;1.40;99.90;;;;;;4981528;28;20462;-79
2021/03/06 02:00:22;;;;;;;10.70;7.23;;;1.40;99.90;;;;;;4980243;28;20432;-78
2021/03/06 02:02:49;;;;;;;7.00;6.20;;;1.40;99.90;;;;;;4980018;28;20463;-79
2021/03/06 02:05:15;;;;;;;9.43;6.40;;;1.40;99.90;;;;;;4973308;28;20500;-78
2021/03/06 02:07:42;;;;;;;10.00;7.37;;;1.40;99.90;;;;;;4972058;28;20468;-78
2021/03/06 02:10:09;;;;;;;6.00;5.50;;;1.40;99.90;;;;;;4978121;28;20444;-79
2021/03/06 02:12:53;;;;;;;6.70;6.10;;;1.30;99.90;;;;;;4971680;28;20422;-78
2021/03/06 02:15:30;;;;;;;9.93;7.77;;;1.20;99.90;;;;;;4971107;28;20521;-78
2021/03/06 02:18:20;;;;;;;8.90;6.30;;;1.20;99.90;;;;;;4984282;28;20437;-79
2021/03/06 02:21:11;;;;;;;8.20;7.37;;;1.10;99.90;;;;;;4982362;28;20956;-79
2021/03/06 02:24:07;;;;;;;8.10;6.60;;;1.10;99.90;;;;;;4968146;28;20429;-79
2021/03/06 02:26:54;;;;;;;7.30;5.97;;;1.10;99.90;;;;;;4966763;28;20476;-78
2021/03/06 02:29:56;;;;;;;8.93;6.60;;;1.10;99.90;;;;;;4985944;28;20429;-78
2021/03/06 02:32:25;;;;;;;9.30;6.37;;;1.00;99.90;;;;;;4985422;28;20515;-78
2021/03/06 02:35:08;;;;;;;8.93;6.87;;;1.00;99.90;;;;;;4985804;28;20426;-78
2021/03/06 02:37:37;;;;;;;8.00;6.40;;;1.00;99.90;;;;;;4984108;28;20471;-78
2021/03/06 02:40:04;;;;;;;11.17;7.10;;;1.00;99.90;;;;;;4981867;28;20861;-77
2021/03/06 02:42:30;;;;;;;9.43;6.60;;;1.00;99.90;;;;;;4962647;28;20458;-78
2021/03/06 02:44:58;;;;;;;11.20;7.17;;;1.00;99.90;;;;;;4966688;28;20427;-77
2021/03/06 02:47:24;;;;;;;10.10;7.40;;;1.00;99.90;;;;;;4962943;28;20473;-78
2021/03/06 02:49:58;;;;;;;12.67;7.73;;;0.90;99.90;;;;;;4967836;28;20421;-78
2021/03/06 02:52:24;;;;;;;7.63;6.50;;;1.00;99.90;;;;;;4956353;28;20805;-78
2021/03/06 02:54:50;;;;;;;12.80;7.27;;;0.90;99.90;;;;;;4982285;28;20429;-78
2021/03/06 02:57:31;;;;;;;12.43;7.73;;;0.90;99.90;;;;;;4960884;28;20452;-78
2021/03/06 03:00:30;;;;;;;12.30;7.80;;;0.90;99.90;;;;;;4976866;28;20421;-78
2021/03/06 03:03:11;;;;;;;8.47;6.20;;;0.90;99.90;;;;;;4900669;29;20799;-77
2021/03/06 03:05:55;;;;;;;9.53;7.53;;;0.90;99.90;;;;;;4967550;28;20947;-78
2021/03/06 03:08:36;;;;;;;9.50;7.13;;;0.80;99.90;;;;;;4984995;28;20432;-77
2021/03/06 03:11:05;;;;;;;8.47;7.40;;;0.80;99.90;;;;;;4983063;28;20436;-78
2021/03/06 03:13:39;;;;;;;8.03;6.97;;;0.90;99.90;;;;;;4963779;28;20436;-78
2021/03/06 03:16:36;;;;;;;7.43;6.30;;;0.80;99.90;;;;;;4980315;28;20467;-78
2021/03/06 03:19:40;;;;;;;7.90;6.20;;;0.80;99.90;;;;;;4968653;28;20443;-77
2021/03/06 03:22:08;;;;;;;7.50;6.00;;;0.80;99.90;;;;;;4967626;28;20436;-79
2021/03/06 03:24:39;;;;;;;6.73;6.03;;;0.80;99.90;;;;;;4975781;28;20518;-79
2021/03/06 03:27:10;;;;;;;9.80;7.27;;;0.80;99.90;;;;;;4984699;28;20472;-78
2021/03/06 03:29:39;;;;;;;7.00;6.30;;;0.70;99.90;;;;;;4967522;28;20429;-79
2021/03/06 03:32:07;;;;;;;9.93;6.03;;;0.80;99.90;;;;;;4974503;28;20977;-77
2021/03/06 03:34:36;;;;;;;8.13;6.37;;;0.80;99.90;;;;;;4977313;28;20468;-78
2021/03/06 03:37:03;;;;;;;8.27;6.37;;;0.80;99.90;;;;;;4985270;28;20480;-79
2021/03/06 03:39:29;;;;;;;9.87;5.97;;;0.80;99.90;;;;;;4982777;28;20474;-77
2021/03/06 03:41:56;;;;;;;14.33;5.70;;;0.80;99.90;;;;;;4968905;28;20427;-78
2021/03/06 03:44:22;;;;;;;10.10;6.20;;;0.80;99.90;;;;;;4967551;28;20441;-78
2021/03/06 03:46:48;;;;;;;6.73;5.40;;;0.70;99.90;;;;;;4980385;28;20497;-78
2021/03/06 03:49:18;;;;;;;8.83;6.60;;;0.60;99.90;;;;;;4955479;28;20428;-76
2021/03/06 03:51:43;;;;;;;10.13;5.83;;;0.60;99.90;;;;;;4958730;28;20216;-78
2021/03/06 03:54:10;;;;;;;6.03;5.43;;;0.60;99.90;;;;;;4984181;28;20433;-78
2021/03/06 03:56:36;;;;;;;7.53;6.03;;;0.60;99.90;;;;;;4982002;28;20471;-78
2021/03/06 03:59:02;;;;;;;7.50;6.60;;;0.60;99.90;;;;;;4967914;28;20442;-78
2021/03/06 04:01:27;;;;;;;7.17;6.17;;;0.60;99.90;;;;;;4965644;28;20536;-78
2021/03/06 04:03:53;;;;;;;6.10;5.50;;;0.50;99.90;;;;;;4984644;28;20448;-78
2021/03/06 04:06:18;;;;;;;9.43;6.70;;;0.50;99.90;;;;;;4977321;28;20220;-78
2021/03/06 04:08:44;;;;;;;6.40;5.40;;;0.50;99.90;;;;;;4959813;28;20181;-78
2021/03/06 04:11:10;;;;;;;7.20;6.10;;;0.50;99.90;;;;;;4982150;28;20176;-78
2021/03/06 04:13:35;;;;;;;7.17;6.17;;;0.50;99.90;;;;;;4957740;28;20182;-78
2021/03/06 04:16:01;;;;;;;6.57;5.40;;;0.50;99.90;;;;;;4961259;28;20197;-78
2021/03/06 04:18:26;;;;;;;7.23;5.60;;;0.50;99.90;;;;;;4962100;28;20185;-78
2021/03/06 04:20:52;;;;;;;7.03;6.33;;;0.40;99.90;;;;;;4953321;28;20272;-76
2021/03/06 04:23:17;;;;;;;6.60;5.87;;;0.40;99.90;;;;;;4978244;28;20213;-79
2021/03/06 04:25:43;;;;;;;9.20;5.67;;;0.40;99.90;;;;;;4956961;28;20206;-79
2021/03/06 04:28:10;;;;;;;7.40;5.60;;;0.40;99.90;;;;;;4964387;28;20187;-79
2021/03/06 04:30:35;;;;;;;5.97;5.10;;;0.40;99.90;;;;;;4970638;28;20433;-78
2021/03/06 04:33:01;;;;;;;9.43;5.70;;;0.40;99.90;;;;;;4978018;28;20428;-79
2021/03/06 04:35:27;;;;;;;7.70;6.30;;;0.40;99.90;;;;;;4982605;28;20180;-78
2021/03/06 04:37:52;;;;;;;9.80;5.03;;;0.30;99.90;;;;;;4981073;28;20182;-78
2021/03/06 04:40:18;;;;;;;7.13;5.23;;;0.30;99.90;;;;;;4983510;28;20180;-77
2021/03/06 04:42:44;;;;;;;5.80;5.30;;;0.30;99.90;;;;;;4982125;28;20181;-78
2021/03/06 04:45:10;;;;;;;10.40;6.33;;;0.20;99.90;;;;;;4988998;28;20185;-78
2021/03/06 04:47:41;;;;;;;8.17;6.17;;;0.20;99.90;;;;;;4986634;28;20300;-78
2021/03/06 04:50:07;;;;;;;8.07;5.13;;;0.20;99.90;;;;;;4987761;28;20420;-77
2021/03/06 04:52:33;;;;;;;5.97;5.37;;;0.20;99.90;;;;;;4968599;28;20520;-78
2021/03/06 04:54:58;;;;;;;6.47;5.40;;;0.20;99.90;;;;;;4965330;28;20444;-77
2021/03/06 04:57:25;;;;;;;5.83;5.20;;;0.20;99.90;;;;;;4951451;28;20209;-77
2021/03/06 04:59:50;;;;;;;12.90;4.80;;;0.20;99.90;;;;;;4950635;29;20183;-78
2021/03/06 05:02:16;;;;;;;8.17;5.13;;;0.20;99.90;;;;;;4964172;28;20443;-79
2021/03/06 05:04:42;;;;;;;7.43;5.43;;;0.20;99.90;;;;;;4954493;28;20212;-79
2021/03/06 05:07:07;;;;;;;11.20;5.77;;;0.20;99.90;;;;;;4984348;28;20215;-79
2021/03/06 05:09:33;;;;;;;8.77;6.27;;;0.10;99.90;;;;;;4960724;28;20187;-77
2021/03/06 05:11:58;;;;;;;6.20;5.40;;;0.10;99.90;;;;;;4968754;28;20245;-78
2021/03/06 05:14:24;;;;;;;6.20;4.70;;;0.10;99.90;;;;;;4954613;28;20175;-76
2021/03/06 05:16:49;;;;;;;5.27;4.27;;;0.10;99.90;;;;;;4970154;28;20203;-79
2021/03/06 05:19:15;;;;;;;7.53;5.73;;;0.00;99.90;;;;;;4983211;28;20249;-76
2021/03/06 05:21:41;;;;;;;7.37;6.17;;;0.10;99.90;;;;;;4974540;28;20186;-77
2021/03/06 05:24:07;;;;;;;14.10;5.70;;;0.00;99.90;;;;;;4964314;28;22053;-77
2021/03/06 05:26:33;;;;;;;7.93;5.80;;;0.00;99.90;;;;;;4974978;28;20231;-78
2021/03/06 05:28:59;;;;;;;7.97;6.47;;;0.00;99.90;;;;;;4957352;29;20417;-79
2021/03/06 05:31:24;;;;;;;9.40;6.50;;;0.00;99.90;;;;;;4950629;29;20464;-79
2021/03/06 05:33:50;;;;;;;6.50;5.53;;;0.00;99.90;;;;;;4965577;28;20194;-77
2021/03/06 05:36:15;;;;;;;6.80;5.40;;;0.00;99.90;;;;;;4979020;28;20209;-77
2021/03/06 05:38:41;;;;;;;5.93;5.23;;;-0.10;99.90;;;;;;4984674;28;20178;-79
2021/03/06 05:41:07;;;;;;;6.73;6.10;;;-0.20;99.90;;;;;;4967783;28;20189;-79
2021/03/06 05:43:33;;;;;;;5.87;5.33;;;-0.30;99.90;;;;;;4983726;28;20190;-78
2021/03/06 05:45:59;;;;;;;7.07;6.00;;;-0.20;99.90;;;;;;4959964;28;20496;-78
2021/03/06 05:48:24;;;;;;;6.93;5.90;;;-0.20;99.90;;;;;;4981589;28;20417;-78
2021/03/06 05:50:52;;;;;;;6.40;5.67;;;-0.20;99.90;;;;;;4981407;28;20441;-78
2021/03/06 05:53:21;;;;;;;5.53;5.03;;;-0.20;99.90;;;;;;4980725;28;20778;-78
2021/03/06 05:55:56;;;;;;;9.03;6.40;;;-0.20;99.90;;;;;;4968318;28;20534;-77
2021/03/06 05:58:22;;;;;;;8.33;5.67;;;-0.20;99.90;;;;;;4977402;28;20431;-77
2021/03/06 06:00:49;;;;;;;10.60;6.10;;;-0.20;99.90;;;;;;4979126;28;20430;-78
2021/03/06 06:03:20;;;;;;;8.53;5.93;;;-0.30;99.90;;;;;;4975613;28;20174;-77
2021/03/06 06:05:47;;;;;;;8.87;6.80;;;-0.30;99.90;;;;;;4983745;28;20465;-76
2021/03/06 06:08:14;;;;;;;8.20;6.37;;;-0.30;99.90;;;;;;4980196;28;20521;-78
2021/03/06 06:10:39;;;;;;;8.70;5.80;;;-0.20;99.90;;;;;;4981679;28;20453;-76
2021/03/06 06:13:05;;;;;;;8.77;6.30;;;-0.20;99.90;;;;;;4967566;28;20444;-78
2021/03/06 06:15:30;;;;;;;8.57;6.50;;;-0.30;99.90;;;;;;4974255;28;20179;-78
2021/03/06 06:17:56;;;;;;;7.63;6.27;;;-0.30;99.90;;;;;;4949996;29;20174;-79
2021/03/06 06:20:23;;;;;;;7.30;6.70;;;-0.30;99.90;;;;;;4949376;28;20175;-79
2021/03/06 06:23:06;;;;;;;7.43;5.83;;;-0.20;99.90;;;;;;4980694;28;20761;-78
2021/03/06 06:25:33;;;;;;;8.03;5.50;;;-0.20;99.90;;;;;;4959318;28;20780;-78
2021/03/06 06:28:02;;;;;;;8.10;7.30;;;-0.20;99.90;;;;;;4978971;28;20464;-78
2021/03/06 06:30:28;;;;;;;8.73;6.50;;;-0.20;99.90;;;;;;4982364;28;20421;-79
2021/03/06 06:32:54;;;;;;;6.67;5.97;;;-0.10;99.90;;;;;;4955566;28;20456;-78
2021/03/06 06:35:19;;;;;;;8.57;6.50;;;-0.10;99.90;;;;;;4970658;28;20217;-79
2021/03/06 06:38:03;;;;;;;8.00;6.10;;;-0.10;99.90;;;;;;4953944;28;20269;-78
2021/03/06 06:40:31;;;;;;;8.83;6.80;;;-0.10;99.90;;;;;;4977572;28;20193;-77
2021/03/06 06:42:58;;;;;;;9.77;7.13;;;0.00;99.90;;;;;;4979831;28;20436;-78
2021/03/06 06:45:34;;;;;;;10.40;7.70;;;0.00;99.90;;;;;;4984176;28;20513;-78
2021/03/06 06:48:10;;;;;;;10.83;7.47;;;0.00;99.90;;;;;;4957674;28;20524;-79
2021/03/06 06:50:36;;;;;;;12.33;7.17;;;0.10;99.90;;;;;;4968769;28;21080;-79
2021/03/06 06:53:03;;;;;;;8.70;7.80;;;0.10;99.90;;;;;;4985336;28;20458;-79
2021/03/06 06:55:39;;;;;;;8.10;6.60;;;0.20;99.90;;;;;;4951797;28;20661;-77
2021/03/06 06:58:05;;;;;;;9.63;7.20;;;0.20;99.90;;;;;;4982697;28;20544;-79
2021/03/06 07:00:32;;;;;;;15.00;7.50;;;0.30;99.90;;;;;;4954916;28;20869;-78
2021/03/06 07:02:59;;;;;;;12.00;6.10;;;0.30;99.90;;;;;;4953695;28;20181;-77
2021/03/06 07:05:26;;;;;;;8.00;7.20;;;0.40;99.90;;;;;;4964794;28;20505;-79
2021/03/06 07:07:53;;;;;;;10.23;7.40;;;0.40;99.90;;;;;;4984288;28;20468;-79
2021/03/06 07:10:19;;;;;;;9.30;6.80;;;0.50;99.90;;;;;;4978266;28;20426;-79
2021/03/06 07:13:01;;;;;;;10.23;6.80;;;0.60;99.90;;;;;;4965145;28;20795;-79
2021/03/06 07:15:30;;;;;;;12.23;7.53;;;0.70;99.90;;;;;;4965487;28;20439;-78
2021/03/06 07:18:03;;;;;;;11.47;8.30;;;0.90;99.90;;;;;;4964405;28;20435;-79
2021/03/06 07:20:36;;;;;;;13.30;8.17;;;0.90;99.90;;;;;;4978669;28;20437;-79
2021/03/06 07:23:13;;;;;;;9.87;8.27;;;1.00;99.90;;;;;;4983147;28;20432;-79
2021/03/06 07:25:39;;;;;;;12.83;10.07;;;1.10;99.90;;;;;;4964095;28;20433;-78
2021/03/06 07:28:05;;;;;;;10.17;8.13;;;1.30;99.90;;;;;;4960218;28;20467;-79
2021/03/06 07:30:31;;;;;;;8.90;7.97;;;1.40;99.90;;;;;;4955365;28;20213;-78
2021/03/06 07:33:00;;;;;;;13.03;8.70;;;1.50;99.90;;;;;;4962327;28;20425;-79
2021/03/06 07:35:26;;;;;;;13.40;9.03;;;1.60;99.90;;;;;;4978923;28;20429;-79
2021/03/06 07:37:59;;;;;;;12.00;9.20;;;1.60;99.90;;;;;;4957067;28;20438;-79
2021/03/06 07:40:30;;;;;;;10.83;9.73;;;1.70;99.90;;;;;;4962747;28;20425;-79
2021/03/06 07:42:59;;;;;;;12.23;10.00;;;1.70;99.90;;;;;;4976660;28;20440;-79
2021/03/06 07:45:28;;;;;;;14.63;9.50;;;1.80;99.90;;;;;;4955873;28;20444;-79
2021/03/06 07:48:08;;;;;;;13.20;8.87;;;2.00;99.90;;;;;;4976697;28;20469;-79
2021/03/06 07:50:38;;;;;;;9.10;8.30;;;2.40;99.90;;;;;;4952951;28;20443;-80
2021/03/06 07:53:04;;;;;;;17.53;11.50;;;2.90;99.90;;;;;;4975962;28;20439;-79
2021/03/06 07:55:31;;;;;;;13.20;11.70;;;3.70;99.90;;;;;;4963197;28;20483;-79
2021/03/06 07:58:13;;;;;;;11.43;7.90;;;4.70;99.90;;;;;;4977179;28;20436;-80
2021/03/06 08:00:40;;;;;;;9.53;8.50;;;5.60;99.90;;;;;;4960938;28;20451;-81
2021/03/06 08:03:35;;;;;;;9.27;7.57;;;6.20;99.90;;;;;;4947559;28;20430;-80
2021/03/06 08:06:20;;;;;;;10.47;8.80;;;6.60;99.90;;;;;;4962618;28;20468;-81
2021/03/06 08:08:46;;;;;;;12.03;8.20;;;6.90;99.90;;;;;;4957341;28;20422;-81
2021/03/06 08:11:18;;;;;;;8.67;7.30;;;7.60;99.90;;;;;;4952454;28;20523;-80
2021/03/06 08:13:49;;;;;;;10.17;9.20;;;7.80;99.90;;;;;;4970635;28;20177;-80
2021/03/06 08:16:24;;;;;;;11.70;8.70;;;7.80;99.90;;;;;;4948058;28;20441;-79
2021/03/06 08:18:49;;;;;;;10.70;7.30;;;8.30;99.90;;;;;;4951155;28;20429;-80
2021/03/06 08:21:35;;;;;;;8.67;7.27;;;8.90;99.90;;;;;;4956983;28;20432;-80
2021/03/06 08:24:18;;;;;;;8.67;7.30;;;9.50;99.90;;;;;;4957142;28;20261;-79
2021/03/06 08:26:52;;;;;;;12.23;7.50;;;10.20;99.90;;;;;;4955904;28;20563;-80
2021/03/06 08:29:20;;;;;;;7.27;6.57;;;10.90;96.50;;;;;;4957787;28;20433;-79
2021/03/06 08:31:54;;;;;;;9.20;7.77;;;11.50;93.60;;;;;;4970896;28;20446;-80
2021/03/06 08:34:43;;;;;;;8.37;6.87;;;12.20;90.20;;;;;;4958934;28;20432;-79
2021/03/06 08:39:45;;;;;;;8.13;6.80;;;13.10;74.60;;;;;;4978642;28;20431;-79
2021/03/06 08:42:12;;;;;;;7.73;6.47;;;13.50;70.90;;;;;;4966095;28;21751;-80
2021/03/06 08:44:39;;;;;;;7.93;7.07;;;14.20;70.30;;;;;;4970572;28;20425;-80
2021/03/06 08:47:06;;;;;;;8.10;6.77;;;14.00;63.20;;;;;;4966728;28;20465;-79
2021/03/06 08:49:31;;;;;;;6.83;6.13;;;14.10;59.20;;;;;;4969567;28;20517;-81
2021/03/06 08:51:58;;;;;;;7.87;7.07;;;14.70;59.90;;;;;;4952580;29;20823;-81
2021/03/06 08:54:24;;;;;;;14.37;7.27;;;14.70;58.90;;;;;;4975783;28;20193;-81
2021/03/06 08:56:50;;;;;;;10.00;8.20;;;14.90;57.80;;;;;;4978111;28;20460;-81
2021/03/06 08:59:16;;;;;;;9.23;6.27;;;15.20;58.00;;;;;;4975099;28;20938;-79
2021/03/06 09:01:42;;;;;;;8.20;6.50;;;15.20;54.30;;;;;;4963441;28;20436;-80
2021/03/06 09:04:08;;;;;;;7.47;6.70;;;15.50;54.30;;;;;;4981204;28;20174;-80
2021/03/06 09:06:35;;;;;;;11.30;6.90;;;15.90;54.10;;;;;;4979836;28;20484;-81
2021/03/06 09:09:00;;;;;;;8.40;6.73;;;15.90;53.30;;;;;;4978664;28;20248;-78
2021/03/06 09:11:28;;;;;;;11.10;8.67;;;16.10;52.20;;;;;;4959944;28;20429;-78
2021/03/06 09:13:54;;;;;;;8.03;7.23;;;15.90;51.90;;;;;;4977854;28;20238;-78
2021/03/06 09:16:20;;;;;;;8.37;7.53;;;16.10;51.90;;;;;;4975589;28;20477;-79
2021/03/06 09:18:45;;;;;;;8.50;6.90;;;16.40;50.90;;;;;;4977060;28;20604;-78
2021/03/06 09:21:15;;;;;;;7.40;6.70;;;16.60;50.00;;;;;;4959902;28;20177;-78
2021/03/06 09:23:43;;;;;;;9.93;6.90;;;16.30;49.90;;;;;;4959558;28;20177;-78
2021/03/06 09:26:18;;;;;;;12.50;7.90;;;16.70;50.10;;;;;;4971238;28;20464;-78
2021/03/06 09:28:45;;;;;;;7.83;6.97;;;15.90;48.60;;;;;;4955922;28;20425;-79
2021/03/06 09:31:20;;;;;;;8.63;7.10;;;16.40;49.50;;;;;;4961448;28;20439;-78
2021/03/06 09:33:46;;;;;;;7.43;6.67;;;16.30;49.50;;;;;;4971460;28;20437;-78
2021/03/06 09:36:13;;;;;;;7.50;6.10;;;16.20;49.60;;;;;;4956554;28;20611;-78
2021/03/06 09:38:48;;;;;;;8.57;7.57;;;16.70;49.60;;;;;;4970265;28;20667;-78
2021/03/06 09:41:16;;;;;;;9.63;8.00;;;17.00;49.30;;;;;;4963919;28;21015;-78
2021/03/06 09:43:47;;;;;;;7.33;6.63;;;16.60;47.70;;;;;;4951311;28;20585;-79
2021/03/06 09:46:18;;;;;;;7.00;6.30;;;16.70;48.30;;;;;;4967349;28;20547;-78
2021/03/06 09:48:51;;;;;;;8.13;5.90;;;16.60;48.10;;;;;;4973865;28;20418;-78
2021/03/06 09:51:17;;;;;;;8.90;6.60;;;17.00;47.50;;;;;;4946995;28;20969;-81
2021/03/06 09:53:42;;;;;;;9.30;6.90;;;17.20;47.70;;;;;;4951342;28;20453;-80
2021/03/06 09:56:12;;;;;;;9.40;6.77;;;17.30;47.10;;;;;;4972447;28;20198;-80
2021/03/06 09:58:40;;;;;;;11.20;6.27;;;16.80;45.40;;;;;;4978188;28;20424;-79
2021/03/06 10:01:17;;;;;;;8.30;6.40;;;16.90;48.00;;;;;;4974558;28;20958;-79
2021/03/06 10:03:44;;;;;;;6.70;6.13;;;17.10;47.50;;;;;;4958039;28;20436;-79
2021/03/06 10:06:12;;;;;;;7.10;6.40;;;16.90;46.10;;;;;;4951412;28;20834;-79
2021/03/06 10:08:44;;;;;;;5.17;4.77;;;17.30;47.00;;;;;;4967774;28;20437;-79
2021/03/06 10:11:10;;;;;;;6.83;5.90;;;17.80;53.70;;;;;;4970361;28;20516;-79
2021/03/06 10:13:36;;;;;;;10.40;6.70;;;17.70;51.90;;;;;;4969899;28;20480;-79
2021/03/06 10:16:03;;;;;;;8.40;6.70;;;17.80;52.50;;;;;;4971444;28;20444;-79
2021/03/06 10:18:28;;;;;;;7.53;6.73;;;18.10;52.00;;;;;;4974742;28;20433;-80
2021/03/06 10:20:55;;;;;;;8.40;7.60;;;18.20;48.70;;;;;;4974840;28;20413;-80
2021/03/06 10:23:34;;;;;;;8.03;6.37;;;18.00;49.70;;;;;;4959560;28;20533;-77
2021/03/06 10:26:12;;;;;;;8.67;7.27;;;18.10;48.30;;;;;;4957902;28;20457;-79
2021/03/06 10:28:38;;;;;;;11.27;10.07;;;18.20;46.60;;;;;;4976104;28;20428;-79
2021/03/06 10:31:03;;;;;;;7.67;5.83;;;17.20;44.00;;;;;;4973189;28;20433;-79
2021/03/06 10:33:30;;;;;;;6.10;5.50;;;17.20;44.60;;;;;;4967407;28;20178;-80
2021/03/06 10:35:56;;;;;;;7.90;6.40;;;17.20;46.00;;;;;;4947227;28;20200;-80
2021/03/06 10:38:28;;;;;;;9.40;6.87;;;17.40;45.80;;;;;;4965272;28;20993;-80
2021/03/06 10:40:58;;;;;;;7.10;6.40;;;17.90;47.50;;;;;;4969764;28;20473;-81
2021/03/06 10:43:50;;;;;;;7.60;6.27;;;17.90;46.50;;;;;;4977610;28;20930;-81
2021/03/06 10:46:15;;;;;;;7.33;6.63;;;18.30;48.50;;;;;;4957177;28;20476;-80
2021/03/06 10:48:44;;;;;;;6.13;5.53;;;18.60;46.60;;;;;;4975429;28;20425;-79
2021/03/06 10:51:09;;;;;;;7.13;6.07;;;18.70;45.20;;;;;;4977238;28;20272;-80
2021/03/06 10:53:36;;;;;;;6.50;5.90;;;18.90;45.40;;;;;;4969400;28;20524;-80
2021/03/06 10:56:06;;;;;;;8.40;6.00;;;18.90;44.90;;;;;;4962839;28;20197;-79
2021/03/06 10:58:48;;;;;;;7.53;5.53;;;19.00;44.30;;;;;;4971199;28;20523;-81
2021/03/06 11:01:17;;;;;;;7.73;6.77;;;18.80;43.70;;;;;;4966344;28;20429;-79
2021/03/06 11:03:47;;;;;;;6.60;5.90;;;18.80;43.20;;;;;;4979704;28;20429;-79
2021/03/06 11:06:14;;;;;;;5.50;5.00;;;18.80;42.60;;;;;;4958872;28;20482;-80
2021/03/06 11:08:41;;;;;;;9.93;5.17;;;18.60;41.60;;;;;;4969265;28;20507;-75
2021/03/06 11:11:08;;;;;;;8.20;7.35;;;18.20;41.90;;;;;;4978255;28;20422;-76
2021/03/06 11:13:52;;;;;;;6.83;6.10;;;18.20;41.50;;;;;;4973018;28;20733;-75
2021/03/06 11:16:38;;;;;;;8.63;6.50;;;17.80;42.20;;;;;;4956277;28;20531;-76
2021/03/06 11:19:04;;;;;;;7.47;5.97;;;17.60;42.00;;;;;;4973283;28;20812;-76
2021/03/06 11:21:30;;;;;;;6.37;5.80;;;17.50;42.50;;;;;;4972528;28;20961;-75
2021/03/06 11:23:55;;;;;;;5.63;5.03;;;17.00;41.30;;;;;;4973459;28;20429;-76
2021/03/06 11:26:21;;;;;;;7.17;5.10;;;17.30;42.50;;;;;;4973159;28;20201;-76
2021/03/06 11:28:47;;;;;;;6.50;5.00;;;17.40;40.50;;;;;;4972628;28;20170;-76
2021/03/06 11:31:13;;;;;;;6.20;5.00;;;17.10;39.70;;;;;;4972648;28;20487;-76
2021/03/06 11:33:38;;;;;;;5.37;4.63;;;17.40;41.30;;;;;;4973112;28;20690;-75
2021/03/06 11:36:04;;;;;;;7.23;5.00;;;17.30;39.00;;;;;;4955858;28;20186;-76
2021/03/06 11:38:29;;;;;;;6.93;5.80;;;17.00;37.90;;;;;;4954842;28;20174;-76
2021/03/06 11:40:56;;;;;;;7.70;6.90;;;16.80;40.20;;;;;;4972293;28;20170;-76
2021/03/06 11:43:22;;;;;;;5.73;5.13;;;17.10;40.70;;;;;;4971033;28;20185;-76
2021/03/06 11:45:48;;;;;;;6.13;5.13;;;16.90;40.40;;;;;;4972488;28;20969;-76
2021/03/06 11:48:14;;;;;;;5.53;5.10;;;16.60;39.00;;;;;;4972933;28;20198;-76
2021/03/06 11:50:42;;;;;;;5.63;4.37;;;17.10;39.50;;;;;;4972444;28;20460;-75
2021/03/06 11:53:08;;;;;;;4.60;4.10;;;17.50;38.00;;;;;;4976054;28;20252;-76
2021/03/06 11:55:34;;;;;;;8.63;5.60;;;17.60;38.00;;;;;;4959421;28;20448;-73
2021/03/06 11:58:00;;;;;;;11.50;9.40;;;17.60;36.30;;;;;;4976495;28;20308;-74
2021/03/06 12:00:30;;;;;;;15.73;10.53;;;17.80;37.00;;;;;;4975101;28;20425;-73
2021/03/06 12:02:56;;;;;;;13.30;12.00;;;17.70;36.80;;;;;;4976587;28;20429;-75
2021/03/06 12:05:22;;;;;;;29.87;21.50;;;18.00;36.90;;;;;;4976620;28;20546;-75
2021/03/06 12:07:50;;;;;;;11.30;6.37;;;18.00;35.90;;;;;;4976383;28;20558;-75
2021/03/06 12:10:18;;;;;;;4.97;4.50;;;18.20;35.80;;;;;;4975966;28;20439;-75
2021/03/06 12:12:45;;;;;;;6.33;5.63;;;17.90;36.10;;;;;;4959033;28;20938;-75
2021/03/06 12:15:15;;;;;;;5.37;4.47;;;18.00;35.90;;;;;;4976414;28;20508;-75
2021/03/06 12:17:42;;;;;;;5.00;4.50;;;18.10;35.70;;;;;;4971593;28;20449;-75
2021/03/06 12:20:09;;;;;;;5.80;4.87;;;16.80;34.80;;;;;;4975161;28;20431;-75
2021/03/06 12:22:35;;;;;;;5.33;4.80;;;17.40;37.40;;;;;;4975952;28;20449;-75
2021/03/06 12:25:01;;;;;;;5.47;4.70;;;17.80;37.60;;;;;;4977484;28;20428;-75
2021/03/06 12:27:27;;;;;;;6.33;5.73;;;17.40;38.00;;;;;;4976772;28;20468;-76
2021/03/06 12:29:52;;;;;;;5.40;4.90;;;16.90;37.20;;;;;;4977040;28;20476;-76
2021/03/06 12:32:18;;;;;;;6.13;5.00;;;16.90;37.90;;;;;;4976780;28;20594;-75
2021/03/06 12:34:43;;;;;;;7.50;5.10;;;17.10;39.10;;;;;;4976249;28;20173;-72
2021/03/06 12:37:09;;;;;;;5.93;5.17;;;16.90;38.70;;;;;;4976448;28;20658;-73
2021/03/06 12:39:35;;;;;;;5.37;4.10;;;16.90;38.20;;;;;;4976819;28;20162;-73
2021/03/06 12:42:01;;;;;;;99.37;84.47;;;17.00;38.40;;;;;;4976023;28;20178;-73
2021/03/06 12:44:26;;;;;;;5.17;4.20;;;16.70;37.70;;;;;;4976154;28;20198;-73
2021/03/06 12:46:52;;;;;;;8.10;5.30;;;16.80;39.70;;;;;;4976446;28;20551;-73
2021/03/06 12:49:18;;;;;;;6.00;4.23;;;16.30;38.00;;;;;;4974701;28;20288;-73
2021/03/06 12:51:45;;;;;;;7.30;5.37;;;16.20;39.10;;;;;;4970261;28;20197;-72
2021/03/06 12:54:11;;;;;;;5.10;4.40;;;16.70;40.10;;;;;;4958600;28;20436;-73
2021/03/06 12:56:37;;;;;;;5.60;4.67;;;16.80;39.90;;;;;;4975705;28;20463;-76
2021/03/06 12:59:03;;;;;;;6.83;5.50;;;16.90;39.30;;;;;;4954957;29;20476;-75